Blue Ridge, GA (30513)

2:03 PM EDT on August 31, 2015 (GMT -0400)
Blue Ridge, GA - Intown | | Change Station
CLOSE
Current Station
Personal Weather Station
Location: Blue Ridge, GA
Elevation: 1722 ft
Nearby Weather Stations

Elev 1722 ft 34.87 °N, 84.32 °W | Updated 11 seconds ago

Overcast
Overcast
79.3 °F
Feels Like 81 °F
N
0.0
Wind Variable Wind from SSW
Gusts 0.0 mph

Today
High -- | Low -- °F
--% Chance of Precip.
Yesterday
High -- | Low -- °F
Precip. -- in
7:09 AM 8:05 PM
Waning Gibbous, 94% visible
Pressure 30.12 in
Visibility 10.0 miles
Clouds Scattered Clouds 4100 ft
Scattered Clouds 4800 ft
Scattered Clouds 8000 ft
Heat Index 81 °F
Dew Point 65 °F
Humidity 61%
Rainfall in
Snow Depth Not available.
UV 5.0 out of 12
Pollen 8.50 out of 12
Air Quality Not available.
Flu Activity Not available.
METAR KDNN 311755Z AUTO 33007KT 296V356 10SM SCT041 SCT048 SCT080 27/20 A3012 RMK AO2
Pressure 30.12 in
Visibility 10.0 miles
Clouds Scattered Clouds 4100 ft
Scattered Clouds 4800 ft
Scattered Clouds 8000 ft
Heat Index 81 °F
Dew Point 65 °F
Humidity 61%
Rainfall in
Snow Depth Not available.
UV 5.0 out of 12
Pollen 8.50 out of 12
Air Quality Not available.
Flu Activity Not available.
METAR KDNN 311755Z AUTO 33007KT 296V356 10SM SCT041 SCT048 SCT080 27/20 A3012 RMK AO2

10-Day Weather Forecast

×

Almanac

Astronomy

Aug. 31, 2015 Rise Set
Actual Time
Civil Twilight
Nautical Twilight
Astronomical Twilight
Moon
Length of Visible Light
Length of Day
Tomorrow will be .
, % of the Moon is Illuminated

Today's Extremes

State Highs State Lows

Community

WunderPhotos

Upload Photos

1,851,324 photos uploaded!

WunderBlogs® & News

Nearby

Air Quality

  Air Quality AQ Index Pollutant
Not available.

Snow Depth

Station Depth Elevation

Earthquake Activity

City Distance Mag. Time & Date
Minimum magnitude displayed is 2.5.

Coastal Water Temperatures

Place Temperature

Stations

Nearby Weather Stations

Station Location Temp. Windchill Dew Point Humidity Wind Precip. Elev Updated Type